< < Back
Terminal Aerodrome Forecast


Current Version              Previous Versions:   1  2  3  4  5  6  7  8  9  

Terminal Aerodrome Forecast

458
FTAK31 PAJN 031700
TAFAHN
TAF
PAHN 031720Z 0318/0418 VRB05KT P6SM SCT040 OVC080
     FM040000 VRB04KT P6SM VCSH SCT020 OVC040
     FM040500 30006KT P6SM VCSH SCT020 OVC040
     FM041500 31008KT P6SM -RASN SCT015 BKN030 OVC035
      AMD LTD TO CLD VIS AND WIND=

Latest METAR

926
SAUS70 KWBC 031900
MTRAHN
METAR KAHN 031851Z 06006KT 3SM BR OVC005 08/07 A3020 RMK AO2 RAB41E48
SLP227 P0000 T00830072


USA.gov is the U.S. government's official web portal to all federal, state and local government web resources and services.